createdAt,value
2019-05-30T00:05:08.930Z,6.20
2019-05-30T00:10:40.159Z,6.60
2019-05-30T00:16:09.425Z,7.10
2019-05-30T00:21:42.927Z,6.77
2019-05-30T00:27:12.199Z,7.40
2019-05-30T00:32:41.472Z,7.10
2019-05-30T00:38:15.496Z,7.10
2019-05-30T00:44:09.815Z,7.80
2019-05-30T00:49:39.097Z,7.43
2019-05-30T00:55:08.500Z,8.10
2019-05-30T01:00:43.236Z,8.17
2019-05-30T01:06:08.994Z,7.70
2019-05-30T01:11:38.292Z,7.50
2019-05-30T01:17:07.611Z,8.27
2019-05-30T01:22:36.876Z,8.70
2019-05-30T01:28:07.717Z,9.13
2019-05-30T01:33:37.212Z,9.67
2019-05-30T01:39:08.152Z,8.50
2019-05-30T01:44:37.570Z,8.03
2019-05-30T01:50:09.151Z,8.53
2019-05-30T01:55:38.421Z,8.47
2019-05-30T02:01:23.666Z,8.93
2019-05-30T02:06:38.742Z,8.30
2019-05-30T02:12:11.773Z,8.80
2019-05-30T02:17:40.942Z,8.80
2019-05-30T02:23:11.946Z,8.40
2019-05-30T02:28:41.191Z,8.47
2019-05-30T02:34:14.811Z,9.10
2019-05-30T02:39:44.060Z,9.60
2019-05-30T02:45:13.859Z,8.87
2019-05-30T02:50:43.606Z,8.00
2019-05-30T02:56:13.158Z,8.17
2019-05-30T03:01:59.280Z,8.47
2019-05-30T03:07:15.321Z,7.83
2019-05-30T03:12:44.721Z,8.13
2019-05-30T03:18:14.946Z,8.70
2019-05-30T03:23:44.642Z,8.40
2019-05-30T03:29:14.478Z,9.70
2019-05-30T03:34:43.877Z,9.10
2019-05-30T03:40:13.379Z,9.43
2019-05-30T03:45:44.700Z,10.50
2019-05-30T03:51:15.882Z,9.53
2019-05-30T03:56:54.976Z,8.70
2019-05-30T04:02:58.046Z,10.50
2019-05-30T04:08:25.265Z,9.50
2019-05-30T04:13:58.989Z,10.20
2019-05-30T04:19:28.265Z,9.53
2019-05-30T04:24:57.540Z,10.37
2019-05-30T04:30:26.969Z,10.23
2019-05-30T04:35:56.252Z,9.10
2019-05-30T04:41:25.587Z,10.53
2019-05-30T04:46:54.878Z,10.13
2019-05-30T04:52:25.066Z,12.33
2019-05-30T04:57:54.408Z,11.97
2019-05-30T05:03:44.496Z,10.60
2019-05-30T05:08:54.703Z,10.50
2019-05-30T05:14:24.538Z,9.07
2019-05-30T05:19:53.775Z,10.63
2019-05-30T05:25:23.617Z,9.43
2019-05-30T05:30:52.928Z,9.60
2019-05-30T05:36:23.082Z,9.53
2019-05-30T05:41:52.370Z,9.63
2019-05-30T05:47:24.551Z,8.60
2019-05-30T05:52:53.875Z,9.30
2019-05-30T05:58:23.945Z,9.90
2019-05-30T06:03:54.153Z,9.33
2019-05-30T06:09:24.597Z,8.93
2019-05-30T06:14:55.009Z,8.07
2019-05-30T06:20:25.346Z,7.93
2019-05-30T06:25:54.640Z,7.67
2019-05-30T06:31:24.465Z,7.27
2019-05-30T06:36:53.860Z,7.67
2019-05-30T06:42:23.678Z,7.93
2019-05-30T06:47:53.935Z,7.93
2019-05-30T06:53:23.370Z,7.60
2019-05-30T06:58:52.582Z,7.00
2019-05-30T07:04:23.198Z,7.10
2019-05-30T07:09:52.871Z,7.47
2019-05-30T07:15:23.087Z,6.50
2019-05-30T07:20:52.448Z,7.20
2019-05-30T07:26:21.722Z,7.30
2019-05-30T07:31:51.021Z,6.60
2019-05-30T07:37:20.318Z,5.73
2019-05-30T07:42:49.597Z,6.00
2019-05-30T07:48:38.640Z,4.93
2019-05-30T07:54:08.009Z,5.70
2019-05-30T07:59:38.625Z,5.67
2019-05-30T08:05:22.717Z,5.37
2019-05-30T08:10:41.158Z,4.93
2019-05-30T08:16:10.424Z,5.47
2019-05-30T08:21:39.732Z,6.17
2019-05-30T08:27:09.774Z,5.57
2019-05-30T08:32:39.059Z,4.43
2019-05-30T08:38:08.327Z,4.37
2019-05-30T08:43:37.674Z,4.57
2019-05-30T08:49:07.145Z,3.47
2019-05-30T08:54:36.517Z,2.50
2019-05-30T09:00:09.563Z,2.50
2019-05-30T09:05:56.405Z,2.77
2019-05-30T09:11:09.853Z,3.77
2019-05-30T09:16:39.125Z,3.10
2019-05-30T09:22:08.515Z,2.97
2019-05-30T09:27:39.371Z,2.40
2019-05-30T09:33:08.930Z,4.10
2019-05-30T09:38:45.504Z,3.57
2019-05-30T09:44:14.880Z,2.70
2019-05-30T09:49:44.676Z,3.07
2019-05-30T09:55:14.789Z,2.80
2019-05-30T10:00:45.331Z,3.37
2019-05-30T10:06:28.572Z,2.70
2019-05-30T10:11:47.178Z,3.00
2019-05-30T10:17:16.632Z,3.40
2019-05-30T10:22:48.666Z,2.53
2019-05-30T10:28:18.200Z,3.37
2019-05-30T10:33:49.110Z,3.00
2019-05-30T10:39:18.671Z,4.40
2019-05-30T10:44:51.099Z,3.30
2019-05-30T10:50:21.659Z,2.60
2019-05-30T10:55:53.611Z,3.20
2019-05-30T11:01:52.878Z,3.93
2019-05-30T11:08:04.006Z,3.17
2019-05-30T11:13:29.282Z,3.40
2019-05-30T11:18:58.607Z,2.80
2019-05-30T11:24:27.977Z,3.00
2019-05-30T11:29:58.625Z,3.97
2019-05-30T11:35:28.337Z,3.40
2019-05-30T11:40:57.670Z,3.10
2019-05-30T11:46:26.995Z,3.20
2019-05-30T11:51:57.787Z,4.00
2019-05-30T11:57:27.166Z,3.87
2019-05-30T12:02:56.629Z,3.80
2019-05-30T12:08:28.362Z,3.73
2019-05-30T12:13:57.629Z,3.60
2019-05-30T12:19:28.946Z,3.13
2019-05-30T12:24:58.230Z,2.20
2019-05-30T12:30:37.555Z,1.90
2019-05-30T12:36:08.049Z,1.60
2019-05-30T12:41:37.407Z,1.70
2019-05-30T12:47:09.820Z,1.73
2019-05-30T12:52:39.135Z,1.50
2019-05-30T12:58:08.779Z,1.97
2019-05-30T13:03:38.059Z,2.30
2019-05-30T13:09:12.092Z,2.40
2019-05-30T13:14:41.510Z,2.57
2019-05-30T13:20:13.540Z,2.23
2019-05-30T13:25:42.848Z,2.50
2019-05-30T13:31:13.155Z,2.00
2019-05-30T13:36:42.438Z,1.60
2019-05-30T13:42:14.831Z,1.50
2019-05-30T13:47:44.086Z,1.70
2019-05-30T13:53:13.360Z,2.07
2019-05-30T13:58:42.824Z,1.50
2019-05-30T14:04:12.149Z,1.53
2019-05-30T14:09:41.490Z,1.30
2019-05-30T14:15:14.465Z,1.70
2019-05-30T14:20:45.944Z,1.30
2019-05-30T14:26:15.241Z,1.40
2019-05-30T14:31:46.539Z,1.60
2019-05-30T14:37:16.101Z,1.30
2019-05-30T14:42:45.477Z,1.30
2019-05-30T14:48:14.773Z,1.40
2019-05-30T14:53:45.482Z,1.60
2019-05-30T14:59:14.770Z,1.70
2019-05-30T15:04:44.118Z,1.40
2019-05-30T15:10:17.278Z,2.23
2019-05-30T15:15:46.561Z,2.10
2019-05-30T15:21:16.673Z,1.80
2019-05-30T15:26:45.893Z,2.17
2019-05-30T15:32:15.217Z,2.37
2019-05-30T15:37:44.503Z,2.03
2019-05-30T15:43:13.809Z,1.60
2019-05-30T15:48:43.224Z,1.70
2019-05-30T15:54:15.011Z,2.13
2019-05-30T15:59:44.347Z,1.93
2019-05-30T16:05:14.590Z,1.50
2019-05-30T16:10:44.541Z,1.70
2019-05-30T16:16:13.990Z,1.70
2019-05-30T16:21:43.402Z,1.70
2019-05-30T16:27:13.686Z,1.50
2019-05-30T16:32:43.046Z,1.97
2019-05-30T16:38:12.475Z,1.50
2019-05-30T16:43:41.759Z,5.00
2019-05-30T16:49:11.179Z,1.90
2019-05-30T16:54:42.237Z,1.70
2019-05-30T17:00:15.669Z,1.77
2019-05-30T17:05:45.127Z,1.47
2019-05-30T17:11:15.330Z,1.73
2019-05-30T17:16:44.668Z,1.63
2019-05-30T17:22:13.941Z,1.67
2019-05-30T17:27:43.218Z,1.63
2019-05-30T17:33:12.511Z,1.40
2019-05-30T17:38:41.818Z,1.70
2019-05-30T17:44:11.105Z,1.77
2019-05-30T17:49:41.526Z,1.93
2019-05-30T17:55:13.521Z,2.00
2019-05-30T18:00:42.858Z,1.80
2019-05-30T18:06:12.163Z,1.80
2019-05-30T18:11:41.526Z,1.80
2019-05-30T18:17:10.922Z,1.83
2019-05-30T18:22:40.341Z,1.40
2019-05-30T18:28:10.602Z,1.80
2019-05-30T18:33:40.059Z,1.73
2019-05-30T18:39:09.864Z,1.70
2019-05-30T18:44:39.249Z,2.17
2019-05-30T18:50:09.888Z,1.90
2019-05-30T18:55:40.479Z,2.00
2019-05-30T19:01:10.807Z,2.10
2019-05-30T19:06:40.125Z,2.10
2019-05-30T19:12:10.888Z,2.00
2019-05-30T19:17:50.799Z,2.97
2019-05-30T19:23:20.245Z,3.20
2019-05-30T19:28:49.692Z,3.23
2019-05-30T19:34:18.973Z,2.97
2019-05-30T19:39:48.295Z,5.50
2019-05-30T19:45:18.916Z,7.20
2019-05-30T19:50:48.219Z,6.17
2019-05-30T19:56:17.480Z,6.50
2019-05-30T20:01:46.851Z,7.87
2019-05-30T20:07:16.202Z,7.00
2019-05-30T20:12:45.959Z,6.33
2019-05-30T20:18:15.230Z,6.20
2019-05-30T20:23:52.594Z,7.80
2019-05-30T20:29:15.783Z,6.77
2019-05-30T20:34:45.079Z,5.80
2019-05-30T20:40:17.778Z,6.80
2019-05-30T20:45:49.866Z,4.53
2019-05-30T20:51:21.412Z,4.40
2019-05-30T20:56:51.744Z,4.10
2019-05-30T21:02:21.311Z,3.80
2019-05-30T21:07:52.403Z,4.27
2019-05-30T21:13:21.685Z,4.43
2019-05-30T21:18:52.952Z,4.80
2019-05-30T21:24:23.232Z,4.10
2019-05-30T21:29:52.511Z,4.57
2019-05-30T21:35:22.113Z,3.63
2019-05-30T21:40:51.451Z,3.77
2019-05-30T21:46:20.759Z,3.50
2019-05-30T21:51:50.139Z,3.43
2019-05-30T21:57:19.413Z,3.90
2019-05-30T22:02:54.198Z,2.87
2019-05-30T22:08:23.488Z,3.50
2019-05-30T22:13:52.868Z,2.50
2019-05-30T22:19:22.207Z,2.80
2019-05-30T22:24:52.470Z,2.60
2019-05-30T22:30:21.771Z,2.77
2019-05-30T22:35:51.086Z,2.70
2019-05-30T22:41:20.321Z,2.77
2019-05-30T22:46:50.225Z,2.57
2019-05-30T22:52:19.591Z,2.97
2019-05-30T22:57:48.831Z,3.03
2019-05-30T23:03:18.119Z,2.53
2019-05-30T23:08:48.500Z,3.20
2019-05-30T23:14:17.879Z,2.40
2019-05-30T23:19:48.508Z,2.53
2019-05-30T23:25:18.173Z,2.77
2019-05-30T23:30:47.812Z,2.13
2019-05-30T23:36:18.066Z,2.53
2019-05-30T23:41:47.329Z,1.90
2019-05-30T23:47:16.631Z,2.33
2019-05-30T23:52:45.894Z,1.90
2019-05-30T23:58:15.168Z,2.57
